createdAt,value
2019-03-30T00:01:02.334Z,63.40
2019-03-30T00:03:33.409Z,63.60
2019-03-30T00:06:05.076Z,64.20
2019-03-30T00:08:36.902Z,64.00
2019-03-30T00:11:07.971Z,64.00
2019-03-30T00:13:40.536Z,65.10
2019-03-30T00:16:13.074Z,65.70
2019-03-30T00:18:44.622Z,64.30
2019-03-30T00:21:16.025Z,64.90
2019-03-30T00:23:47.573Z,65.00
2019-03-30T00:26:18.765Z,66.10
2019-03-30T00:28:50.269Z,65.00
2019-03-30T00:31:21.666Z,65.70
2019-03-30T00:33:53.165Z,66.40
2019-03-30T00:36:24.535Z,65.50
2019-03-30T00:38:55.867Z,65.10
2019-03-30T00:41:26.898Z,65.10
2019-03-30T00:43:57.928Z,65.20
2019-03-30T00:46:28.893Z,65.20
2019-03-30T00:48:59.920Z,65.40
2019-03-30T00:51:32.763Z,65.50
2019-03-30T00:54:04.243Z,67.20
2019-03-30T00:56:35.345Z,66.70
2019-03-30T00:59:06.692Z,65.40
2019-03-30T01:01:38.603Z,65.50
2019-03-30T01:04:09.640Z,66.00
2019-03-30T01:06:41.204Z,65.60
2019-03-30T01:09:12.550Z,66.20
2019-03-30T01:11:44.069Z,66.00
2019-03-30T01:14:15.170Z,64.80
2019-03-30T01:16:46.313Z,65.20
2019-03-30T01:19:17.834Z,65.60
2019-03-30T01:21:48.976Z,67.30
2019-03-30T01:24:20.510Z,65.80
2019-03-30T01:26:52.614Z,65.80
2019-03-30T01:29:23.759Z,66.40
2019-03-30T01:31:54.838Z,66.30
2019-03-30T01:34:26.216Z,66.40
2019-03-30T01:36:57.268Z,66.60
2019-03-30T01:39:28.310Z,66.80
2019-03-30T01:42:01.030Z,66.90
2019-03-30T01:44:32.512Z,66.90
2019-03-30T01:47:04.714Z,67.70
2019-03-30T01:49:36.184Z,66.10
2019-03-30T01:52:09.154Z,68.00
2019-03-30T01:54:41.410Z,67.90
2019-03-30T01:57:12.504Z,67.80
2019-03-30T01:59:43.931Z,67.90
2019-03-30T02:02:15.021Z,68.20
2019-03-30T02:04:47.007Z,68.20
2019-03-30T02:07:18.381Z,68.60
2019-03-30T02:12:21.390Z,68.30
2019-03-30T02:14:54.100Z,68.30
2019-03-30T02:17:25.122Z,68.40
2019-03-30T02:19:57.001Z,68.40
2019-03-30T02:22:28.583Z,69.20
2019-03-30T02:24:59.704Z,70.00
2019-03-30T02:27:30.633Z,68.50
2019-03-30T02:30:03.819Z,68.30
2019-03-30T02:32:35.005Z,68.20
2019-03-30T02:37:36.050Z,67.60
2019-03-30T02:40:08.901Z,67.40
2019-03-30T02:42:40.062Z,67.70
2019-03-30T02:45:11.748Z,67.40
2019-03-30T02:47:43.287Z,68.00
2019-03-30T02:50:15.707Z,68.20
2019-03-30T02:52:46.710Z,68.80
2019-03-30T02:55:17.964Z,69.10
2019-03-30T02:57:50.369Z,69.40
2019-03-30T03:00:21.558Z,69.30
2019-03-30T03:02:53.169Z,69.80
2019-03-30T03:05:25.040Z,69.40
2019-03-30T03:07:56.122Z,70.30
2019-03-30T03:12:58.232Z,69.60
2019-03-30T03:18:01.040Z,69.10
2019-03-30T03:20:32.339Z,69.40
2019-03-30T03:23:04.292Z,69.50
2019-03-30T03:25:35.532Z,69.90
2019-03-30T03:28:06.510Z,69.60
2019-03-30T03:30:38.131Z,69.30
2019-03-30T03:35:39.695Z,70.10
2019-03-30T03:38:14.001Z,70.00
2019-03-30T03:40:47.945Z,70.20
2019-03-30T03:43:19.869Z,69.50
2019-03-30T03:45:52.670Z,69.40
2019-03-30T03:51:01.752Z,68.90
2019-03-30T03:53:35.818Z,69.70
2019-03-30T03:56:08.399Z,69.60
2019-03-30T03:58:41.426Z,69.90
2019-03-30T04:01:16.993Z,70.80
2019-03-30T04:03:50.716Z,70.00
2019-03-30T04:06:25.253Z,70.10
2019-03-30T04:11:31.448Z,70.10
2019-03-30T04:14:04.918Z,70.00
2019-03-30T04:16:36.740Z,70.00
2019-03-30T04:19:08.553Z,70.00
2019-03-30T04:21:44.362Z,70.30
2019-03-30T04:24:13.086Z,70.10
2019-03-30T04:26:45.076Z,70.00
2019-03-30T04:29:17.525Z,70.00
2019-03-30T04:31:48.955Z,70.30
2019-03-30T04:34:21.343Z,71.10
2019-03-30T04:36:52.586Z,70.90
2019-03-30T04:39:24.248Z,72.30
2019-03-30T04:41:56.108Z,71.10
2019-03-30T04:44:28.407Z,71.60
2019-03-30T04:47:00.859Z,71.60
2019-03-30T04:49:34.677Z,71.20
2019-03-30T04:52:08.015Z,72.20
2019-03-30T04:54:44.988Z,70.40
2019-03-30T04:57:16.474Z,73.30
2019-03-30T04:59:48.238Z,71.60
2019-03-30T05:02:20.959Z,71.80
2019-03-30T05:04:53.528Z,72.10
2019-03-30T05:07:25.719Z,73.10
2019-03-30T05:09:58.769Z,72.50
2019-03-30T05:12:30.570Z,72.00
2019-03-30T05:15:02.519Z,71.80
2019-03-30T05:17:47.036Z,71.00
2019-03-30T05:20:08.240Z,72.50
2019-03-30T05:22:39.641Z,72.00
2019-03-30T05:25:12.508Z,72.30
2019-03-30T05:27:44.882Z,72.50
2019-03-30T05:30:21.333Z,72.40
2019-03-30T05:33:05.020Z,72.00
2019-03-30T05:35:27.245Z,72.00
2019-03-30T05:38:01.467Z,72.50
2019-03-30T05:40:33.280Z,72.30
2019-03-30T05:43:07.919Z,72.10
2019-03-30T05:45:41.661Z,71.80
2019-03-30T05:48:14.837Z,73.40
2019-03-30T05:50:47.277Z,71.60
2019-03-30T05:55:49.590Z,71.60
2019-03-30T05:58:20.721Z,71.50
2019-03-30T06:00:52.168Z,71.40
2019-03-30T06:03:23.684Z,71.60
2019-03-30T06:05:55.267Z,73.30
2019-03-30T06:08:26.455Z,72.70
2019-03-30T06:10:57.500Z,71.70
2019-03-30T06:13:30.861Z,71.40
2019-03-30T06:18:34.511Z,70.40
2019-03-30T06:21:06.535Z,69.90
2019-03-30T06:23:40.994Z,69.40
2019-03-30T06:26:13.039Z,70.00
2019-03-30T06:28:45.408Z,69.80
2019-03-30T06:31:18.126Z,70.50
2019-03-30T06:33:49.831Z,69.10
2019-03-30T06:36:20.983Z,67.30
2019-03-30T06:38:52.129Z,69.10
2019-03-30T06:41:23.196Z,68.30
2019-03-30T06:43:55.170Z,68.00
2019-03-30T06:46:26.608Z,68.10
2019-03-30T06:48:57.685Z,67.50
2019-03-30T06:51:30.115Z,68.10
2019-03-30T06:54:02.704Z,67.70
2019-03-30T06:56:34.360Z,67.20
2019-03-30T06:59:06.050Z,67.90
2019-03-30T07:01:39.784Z,66.20
2019-03-30T07:04:12.515Z,66.00
2019-03-30T07:06:49.177Z,65.60
2019-03-30T07:09:23.043Z,64.90
2019-03-30T07:11:57.225Z,64.30
2019-03-30T07:14:32.670Z,63.90
2019-03-30T07:17:08.535Z,64.40
2019-03-30T07:19:42.368Z,63.60
2019-03-30T07:22:15.786Z,62.40
2019-03-30T07:24:47.536Z,63.90
2019-03-30T07:27:20.883Z,62.20
2019-03-30T07:29:52.148Z,62.10
2019-03-30T07:32:28.274Z,63.10
2019-03-30T07:35:01.356Z,62.70
2019-03-30T07:37:33.529Z,59.90
2019-03-30T07:40:05.104Z,58.50
2019-03-30T07:42:36.306Z,58.40
2019-03-30T07:45:08.759Z,57.60
2019-03-30T07:47:40.577Z,57.60
2019-03-30T07:50:13.643Z,57.20
2019-03-30T07:52:45.332Z,56.50
2019-03-30T07:55:17.020Z,56.20
2019-03-30T07:57:49.854Z,55.60
2019-03-30T08:00:21.477Z,55.80
2019-03-30T08:02:54.885Z,56.20
2019-03-30T08:05:27.913Z,54.80
2019-03-30T08:07:59.054Z,54.00
2019-03-30T08:10:30.729Z,53.70
2019-03-30T08:13:02.950Z,53.10
2019-03-30T08:15:36.311Z,53.40
2019-03-30T08:18:08.443Z,52.90
2019-03-30T08:20:41.135Z,51.90
2019-03-30T08:23:17.362Z,53.00
2019-03-30T08:25:53.226Z,52.20
2019-03-30T08:28:24.970Z,50.10
2019-03-30T08:30:56.884Z,50.30
2019-03-30T08:33:28.076Z,49.40
2019-03-30T08:35:59.764Z,49.90
2019-03-30T08:38:31.421Z,49.60
2019-03-30T08:41:02.556Z,48.80
2019-03-30T08:43:34.109Z,48.50
2019-03-30T08:46:08.609Z,49.00
2019-03-30T08:48:40.060Z,49.30
2019-03-30T08:51:11.604Z,48.50
2019-03-30T08:53:54.100Z,48.30
2019-03-30T08:56:24.191Z,48.00
2019-03-30T08:58:59.301Z,47.40
2019-03-30T09:01:31.763Z,46.50
2019-03-30T09:04:03.155Z,46.90
2019-03-30T09:06:34.899Z,46.70
2019-03-30T09:11:46.120Z,45.60
2019-03-30T09:14:18.070Z,45.80
2019-03-30T09:16:50.010Z,46.00
2019-03-30T09:19:21.585Z,43.80
2019-03-30T09:21:52.765Z,43.40
2019-03-30T09:24:24.386Z,43.50
2019-03-30T09:26:58.125Z,43.30
2019-03-30T09:29:29.537Z,44.60
2019-03-30T09:32:13.849Z,42.60
2019-03-30T09:34:36.638Z,42.40
2019-03-30T09:37:09.211Z,44.00
2019-03-30T09:42:11.607Z,42.60
2019-03-30T09:44:43.037Z,43.30
2019-03-30T09:47:15.496Z,42.70
2019-03-30T09:49:46.900Z,42.90
2019-03-30T09:52:19.551Z,43.80
2019-03-30T09:54:54.294Z,41.20
2019-03-30T09:57:26.886Z,42.00
2019-03-30T09:59:58.278Z,43.00
2019-03-30T10:02:30.789Z,42.30
2019-03-30T10:05:06.406Z,40.80
2019-03-30T10:07:38.854Z,41.30
2019-03-30T10:10:12.345Z,40.80
2019-03-30T10:12:44.309Z,40.70
2019-03-30T10:15:17.121Z,41.50
2019-03-30T10:17:50.872Z,40.80
2019-03-30T10:20:22.706Z,40.60
2019-03-30T10:22:55.777Z,40.40
2019-03-30T10:25:27.437Z,41.10
2019-03-30T10:27:59.536Z,40.30
2019-03-30T10:30:30.536Z,40.20
2019-03-30T10:33:04.784Z,40.30
2019-03-30T10:35:36.513Z,39.20
2019-03-30T10:38:10.117Z,39.60
2019-03-30T10:40:43.909Z,39.50
2019-03-30T10:43:18.380Z,39.10
2019-03-30T10:45:51.255Z,39.30
2019-03-30T10:48:25.010Z,38.70
2019-03-30T10:50:57.420Z,39.30
2019-03-30T10:53:28.540Z,39.00
2019-03-30T10:55:59.927Z,38.70
2019-03-30T10:58:32.188Z,37.50
2019-03-30T11:01:05.699Z,36.70
2019-03-30T11:03:40.010Z,36.50
2019-03-30T11:06:12.093Z,36.20
2019-03-30T11:08:44.704Z,36.60
2019-03-30T11:11:17.359Z,37.10
2019-03-30T11:13:50.219Z,36.20
2019-03-30T11:16:21.530Z,37.30
2019-03-30T11:18:53.435Z,37.20
2019-03-30T11:21:25.829Z,35.70
2019-03-30T11:23:58.465Z,36.90
2019-03-30T11:26:31.377Z,37.30
2019-03-30T11:29:06.880Z,35.70
2019-03-30T11:31:41.158Z,34.90
2019-03-30T11:34:13.922Z,35.30
2019-03-30T11:36:45.487Z,35.60
2019-03-30T11:39:19.418Z,35.00
2019-03-30T11:41:51.018Z,35.50
2019-03-30T11:44:22.356Z,35.30
2019-03-30T11:46:53.566Z,35.10
2019-03-30T11:49:28.087Z,35.30
2019-03-30T11:51:59.707Z,34.30
2019-03-30T11:54:35.833Z,33.00
2019-03-30T11:57:07.509Z,31.60
2019-03-30T11:59:41.012Z,30.90
2019-03-30T12:02:27.450Z,32.00
2019-03-30T12:04:55.262Z,31.40
2019-03-30T12:07:26.830Z,32.70
2019-03-30T12:12:37.303Z,31.60
2019-03-30T12:15:15.783Z,32.70
2019-03-30T12:17:48.995Z,32.70
2019-03-30T12:20:22.196Z,32.40
2019-03-30T12:22:53.924Z,33.10
2019-03-30T12:25:35.507Z,32.90
2019-03-30T12:27:58.988Z,33.30
2019-03-30T12:30:30.936Z,32.20
2019-03-30T12:35:36.174Z,31.50
2019-03-30T12:38:07.415Z,32.30
2019-03-30T12:40:38.805Z,30.60
2019-03-30T12:43:12.929Z,30.30
2019-03-30T12:45:44.449Z,31.40
2019-03-30T12:50:49.404Z,29.40
2019-03-30T12:53:21.067Z,29.10
2019-03-30T12:55:52.275Z,29.20
2019-03-30T12:58:29.059Z,29.20
2019-03-30T13:01:10.521Z,30.00
2019-03-30T13:03:42.160Z,28.50
2019-03-30T13:06:16.005Z,28.60
2019-03-30T13:08:47.344Z,28.70
2019-03-30T13:11:40.424Z,29.80
2019-03-30T13:16:19.365Z,28.40
2019-03-30T13:17:52.155Z,28.60
2019-03-30T13:20:27.974Z,28.40
2019-03-30T13:23:04.386Z,28.40
2019-03-30T13:25:37.703Z,29.40
2019-03-30T13:28:17.119Z,28.40
2019-03-30T13:30:49.656Z,28.10
2019-03-30T13:33:20.739Z,28.10
2019-03-30T13:36:02.435Z,28.00
2019-03-30T13:38:34.191Z,28.30
2019-03-30T13:41:06.886Z,29.30
2019-03-30T13:43:41.156Z,28.90
2019-03-30T13:46:18.199Z,28.20
2019-03-30T13:48:51.060Z,28.50
2019-03-30T13:51:27.394Z,28.20
2019-03-30T13:54:01.505Z,28.80
2019-03-30T13:56:35.896Z,27.80
2019-03-30T13:59:09.691Z,28.20
2019-03-30T14:01:41.394Z,27.80
2019-03-30T14:04:13.789Z,28.50
2019-03-30T14:06:45.310Z,29.00
2019-03-30T14:09:16.781Z,27.60
2019-03-30T14:11:48.311Z,27.90
2019-03-30T14:14:20.303Z,28.40
2019-03-30T14:16:53.441Z,28.40
2019-03-30T14:19:25.403Z,28.20
2019-03-30T14:22:01.773Z,27.90
2019-03-30T14:25:16.444Z,28.30
2019-03-30T14:27:48.920Z,28.20
2019-03-30T14:30:22.748Z,26.90
2019-03-30T14:32:55.929Z,27.20
2019-03-30T14:35:27.503Z,26.60
2019-03-30T14:38:03.067Z,27.70
2019-03-30T14:40:34.904Z,27.00
2019-03-30T14:43:07.439Z,26.70
2019-03-30T14:45:44.950Z,26.40
2019-03-30T14:48:16.937Z,26.70
2019-03-30T14:50:48.767Z,26.30
2019-03-30T14:53:24.240Z,26.50
2019-03-30T14:55:57.116Z,26.40
2019-03-30T14:58:29.437Z,26.70
2019-03-30T15:01:03.248Z,26.30
2019-03-30T15:03:34.840Z,26.00
2019-03-30T15:06:08.017Z,25.10
2019-03-30T15:08:39.359Z,24.70
2019-03-30T15:11:12.549Z,24.70
2019-03-30T15:13:44.262Z,23.90
2019-03-30T15:16:20.708Z,23.80
2019-03-30T15:18:53.603Z,24.80
2019-03-30T15:21:26.775Z,25.00
2019-03-30T15:24:20.773Z,24.50
2019-03-30T15:27:00.000Z,23.10
2019-03-30T15:29:26.405Z,23.50
2019-03-30T15:31:57.627Z,23.80
2019-03-30T15:34:29.902Z,24.10
2019-03-30T15:37:01.257Z,23.40
2019-03-30T15:39:34.153Z,24.30
2019-03-30T15:42:06.009Z,23.20
2019-03-30T15:44:37.927Z,23.30
2019-03-30T15:47:09.529Z,22.90
2019-03-30T15:49:41.206Z,22.10
2019-03-30T15:52:14.527Z,21.60
2019-03-30T15:54:49.006Z,21.90
2019-03-30T15:57:20.912Z,22.90
2019-03-30T15:59:52.767Z,23.00
2019-03-30T16:02:24.081Z,23.00
2019-03-30T16:04:59.671Z,22.40
2019-03-30T16:07:31.599Z,22.40
2019-03-30T16:10:03.220Z,22.50
2019-03-30T16:12:34.598Z,22.50
2019-03-30T16:15:06.494Z,22.40
2019-03-30T16:17:39.622Z,21.60
2019-03-30T16:20:51.713Z,22.00
2019-03-30T16:23:30.422Z,21.80
2019-03-30T16:26:02.550Z,21.60
2019-03-30T16:28:38.604Z,21.80
2019-03-30T16:31:08.585Z,21.70
2019-03-30T16:33:40.726Z,20.60
2019-03-30T16:36:11.829Z,21.60
2019-03-30T16:38:42.958Z,21.30
2019-03-30T16:41:15.534Z,21.30
2019-03-30T16:43:46.525Z,21.50
2019-03-30T16:46:17.891Z,21.70
2019-03-30T16:48:51.929Z,22.30
2019-03-30T16:51:22.892Z,22.80
2019-03-30T16:53:53.879Z,23.40
2019-03-30T16:56:25.524Z,23.70
2019-03-30T16:58:57.784Z,24.10
2019-03-30T17:01:31.195Z,25.10
2019-03-30T17:04:02.856Z,25.40
2019-03-30T17:06:34.406Z,25.40
2019-03-30T17:09:07.158Z,25.90
2019-03-30T17:12:16.819Z,25.60
2019-03-30T17:17:49.034Z,26.60
2019-03-30T17:20:51.975Z,26.20
2019-03-30T17:23:24.212Z,27.00
2019-03-30T17:26:05.425Z,27.20
2019-03-30T17:28:41.105Z,28.10
2019-03-30T17:31:12.120Z,28.40
2019-03-30T17:33:50.324Z,28.40
2019-03-30T17:36:22.007Z,28.70
2019-03-30T17:38:55.602Z,28.70
2019-03-30T17:41:27.066Z,30.00
2019-03-30T17:43:58.596Z,30.00
2019-03-30T17:46:30.867Z,29.70
2019-03-30T17:49:04.981Z,29.80
2019-03-30T17:51:39.399Z,30.80
2019-03-30T17:54:11.941Z,31.00
2019-03-30T17:56:43.244Z,31.30
2019-03-30T17:59:14.706Z,32.10
2019-03-30T18:01:46.214Z,33.00
2019-03-30T18:04:17.811Z,32.90
2019-03-30T18:09:30.399Z,34.70
2019-03-30T18:12:03.785Z,35.10
2019-03-30T18:14:38.172Z,35.50
2019-03-30T18:17:09.726Z,35.90
2019-03-30T18:19:41.229Z,37.00
2019-03-30T18:22:13.351Z,37.10
2019-03-30T18:24:46.327Z,36.60
2019-03-30T18:27:18.778Z,37.40
2019-03-30T18:32:23.431Z,37.60
2019-03-30T18:37:29.283Z,38.00
2019-03-30T18:40:01.488Z,39.60
2019-03-30T18:42:33.965Z,39.30
2019-03-30T18:45:06.566Z,40.60
2019-03-30T18:47:38.663Z,41.40
2019-03-30T18:50:09.948Z,40.40
2019-03-30T18:52:43.385Z,41.90
2019-03-30T18:55:18.936Z,41.70
2019-03-30T18:57:50.069Z,41.80
2019-03-30T19:00:28.886Z,41.90
2019-03-30T19:03:00.051Z,42.20
2019-03-30T19:05:33.336Z,42.50
2019-03-30T19:08:05.191Z,42.70
2019-03-30T19:10:36.459Z,43.40
2019-03-30T19:13:13.498Z,43.40
2019-03-30T19:15:47.003Z,43.50
2019-03-30T19:18:19.818Z,44.00
2019-03-30T19:20:52.073Z,44.40
2019-03-30T19:23:23.273Z,44.80
2019-03-30T19:25:54.518Z,44.90
2019-03-30T19:28:25.656Z,44.70
2019-03-30T19:30:56.915Z,45.20
2019-03-30T19:33:28.065Z,45.50
2019-03-30T19:35:59.411Z,46.20
2019-03-30T19:38:30.328Z,45.10
2019-03-30T19:41:01.469Z,46.20
2019-03-30T19:43:32.713Z,46.10
2019-03-30T19:46:05.187Z,46.00
2019-03-30T19:48:38.445Z,46.40
2019-03-30T19:51:10.152Z,45.70
2019-03-30T19:53:42.471Z,45.70
2019-03-30T19:56:14.156Z,45.80
2019-03-30T19:58:45.244Z,45.60
2019-03-30T20:01:17.280Z,46.10
2019-03-30T20:03:49.452Z,46.40
2019-03-30T20:06:20.698Z,46.20
2019-03-30T20:08:54.732Z,46.40
2019-03-30T20:11:26.720Z,46.70
2019-03-30T20:13:58.062Z,46.80
2019-03-30T20:16:29.687Z,47.90
2019-03-30T20:19:12.191Z,47.40
2019-03-30T20:21:33.518Z,47.40
2019-03-30T20:26:36.642Z,48.00
2019-03-30T20:29:07.813Z,48.80
2019-03-30T20:31:39.226Z,48.30
2019-03-30T20:34:10.331Z,48.90
2019-03-30T20:36:45.058Z,48.30
2019-03-30T20:39:18.275Z,48.80
2019-03-30T20:41:49.450Z,48.50
2019-03-30T20:44:23.134Z,49.40
2019-03-30T20:46:59.790Z,49.00
2019-03-30T20:49:32.378Z,49.10
2019-03-30T20:52:03.505Z,49.60
2019-03-30T20:54:40.148Z,49.60
2019-03-30T20:57:11.478Z,50.30
2019-03-30T20:59:42.583Z,50.00
2019-03-30T21:02:15.306Z,50.80
2019-03-30T21:04:47.298Z,51.40
2019-03-30T21:09:48.946Z,50.60
2019-03-30T21:12:23.460Z,51.10
2019-03-30T21:14:56.605Z,51.30
2019-03-30T21:17:31.431Z,52.00
2019-03-30T21:20:02.812Z,52.20
2019-03-30T21:22:36.899Z,51.60
2019-03-30T21:25:11.642Z,52.50
2019-03-30T21:27:43.611Z,51.90
2019-03-30T21:30:15.100Z,52.40
2019-03-30T21:32:46.524Z,53.20
2019-03-30T21:35:19.923Z,53.90
2019-03-30T21:37:54.583Z,53.40
2019-03-30T21:40:25.833Z,53.40
2019-03-30T21:42:57.275Z,53.10
2019-03-30T21:45:33.543Z,52.50
2019-03-30T21:48:05.784Z,53.10
2019-03-30T21:53:07.053Z,52.60
2019-03-30T21:55:38.091Z,53.00
2019-03-30T21:58:10.144Z,52.80
2019-03-30T22:00:41.430Z,53.20
2019-03-30T22:03:12.782Z,53.00
2019-03-30T22:05:44.107Z,53.20
2019-03-30T22:08:17.159Z,53.30
2019-03-30T22:10:48.809Z,53.90
2019-03-30T22:13:21.898Z,53.70
2019-03-30T22:15:53.101Z,54.10
2019-03-30T22:18:24.411Z,53.90
2019-03-30T22:20:55.404Z,53.80
2019-03-30T22:23:26.889Z,54.10
2019-03-30T22:26:00.429Z,53.90
2019-03-30T22:28:31.931Z,54.80
2019-03-30T22:31:04.405Z,54.60
2019-03-30T22:33:36.015Z,54.80
2019-03-30T22:36:15.182Z,55.00
2019-03-30T22:38:46.295Z,54.80
2019-03-30T22:41:17.313Z,55.20
2019-03-30T22:43:48.548Z,55.30
2019-03-30T22:46:19.901Z,55.10
2019-03-30T22:48:51.363Z,55.30
2019-03-30T22:51:22.817Z,55.80
2019-03-30T22:53:54.346Z,56.10
2019-03-30T22:56:26.318Z,55.70
2019-03-30T22:58:57.748Z,55.50
2019-03-30T23:01:28.734Z,56.30
2019-03-30T23:04:00.456Z,55.60
2019-03-30T23:06:31.460Z,56.40
2019-03-30T23:09:03.139Z,56.40
2019-03-30T23:11:37.056Z,56.40
2019-03-30T23:14:11.763Z,56.30
2019-03-30T23:16:42.838Z,56.20
2019-03-30T23:19:14.693Z,57.20
2019-03-30T23:21:45.811Z,56.90
2019-03-30T23:24:17.070Z,57.30
2019-03-30T23:26:48.382Z,56.90
2019-03-30T23:29:20.779Z,57.20
2019-03-30T23:31:52.580Z,57.20
2019-03-30T23:34:23.980Z,57.20
2019-03-30T23:36:56.101Z,57.40
2019-03-30T23:39:27.364Z,57.80
2019-03-30T23:41:58.941Z,57.70
2019-03-30T23:44:30.196Z,57.60
2019-03-30T23:47:01.434Z,57.90
2019-03-30T23:49:32.914Z,58.80
2019-03-30T23:52:04.126Z,58.30
2019-03-30T23:54:35.656Z,58.10
2019-03-30T23:57:06.724Z,58.20
2019-03-30T23:59:37.681Z,58.50
